sensor_id;sensor_type;location;lat;lon;timestamp;pressure;altitude;pressure_sealevel;temperature;humidity
13765;BME280;6953;48.810;9.204;2022-09-27T00:01:54;96750.34;;;10.36;100.00
13765;BME280;6953;48.810;9.204;2022-09-27T00:04:19;96994.28;;;12.01;100.00
13765;BME280;6953;48.810;9.204;2022-09-27T00:06:45;96980.22;;;11.91;100.00
13765;BME280;6953;48.810;9.204;2022-09-27T00:09:10;96984.38;;;11.94;100.00
13765;BME280;6953;48.810;9.204;2022-09-27T00:11:37;96992.59;;;12.00;100.00
13765;BME280;6953;48.810;9.204;2022-09-27T00:14:04;96758.59;;;10.52;100.00
13765;BME280;6953;48.810;9.204;2022-09-27T00:16:33;96687.75;;;10.23;100.00
13765;BME280;6953;48.810;9.204;2022-09-27T00:19:07;96783.94;;;10.83;100.00
13765;BME280;6953;48.810;9.204;2022-09-27T00:21:34;96970.69;;;11.90;100.00
13765;BME280;6953;48.810;9.204;2022-09-27T00:24:00;96962.53;;;11.93;100.00
13765;BME280;6953;48.810;9.204;2022-09-27T00:26:26;96905.81;;;11.61;100.00
13765;BME280;6953;48.810;9.204;2022-09-27T00:28:52;96877.06;;;11.39;100.00
13765;BME280;6953;48.810;9.204;2022-09-27T00:31:23;97001.31;;;12.01;100.00
13765;BME280;6953;48.810;9.204;2022-09-27T00:33:51;97015.16;;;12.03;100.00
13765;BME280;6953;48.810;9.204;2022-09-27T00:36:18;96977.66;;;12.01;100.00
13765;BME280;6953;48.810;9.204;2022-09-27T00:38:44;96929.50;;;11.70;100.00
13765;BME280;6953;48.810;9.204;2022-09-27T00:41:24;96950.78;;;11.88;100.00
13765;BME280;6953;48.810;9.204;2022-09-27T00:47:09;96704.63;;;10.50;100.00
13765;BME280;6953;48.810;9.204;2022-09-27T00:49:37;96970.03;;;11.98;100.00
13765;BME280;6953;48.810;9.204;2022-09-27T00:52:08;96970.72;;;12.00;100.00
13765;BME280;6953;48.810;9.204;2022-09-27T00:54:38;96772.03;;;10.79;100.00
13765;BME280;6953;48.810;9.204;2022-09-27T00:57:05;96790.25;;;11.01;100.00
13765;BME280;6953;48.810;9.204;2022-09-27T00:59:40;96691.13;;;10.54;100.00
13765;BME280;6953;48.810;9.204;2022-09-27T01:02:07;96944.84;;;11.95;100.00
13765;BME280;6953;48.810;9.204;2022-09-27T01:04:34;96961.22;;;12.08;100.00
13765;BME280;6953;48.810;9.204;2022-09-27T01:07:01;96991.94;;;12.08;100.00
13765;BME280;6953;48.810;9.204;2022-09-27T01:09:27;96950.91;;;11.96;100.00
13765;BME280;6953;48.810;9.204;2022-09-27T01:12:00;96991.34;;;12.04;100.00
13765;BME280;6953;48.810;9.204;2022-09-27T01:34:03;97000.56;;;12.19;100.00
13765;BME280;6953;48.810;9.204;2022-09-27T01:36:39;96970.69;;;12.20;100.00
13765;BME280;6953;48.810;9.204;2022-09-27T01:39:19;96989.09;;;12.20;100.00
13765;BME280;6953;48.810;9.204;2022-09-27T01:42:07;96953.38;;;12.18;100.00
13765;BME280;6953;48.810;9.204;2022-09-27T01:44:39;96959.28;;;12.10;100.00
13765;BME280;6953;48.810;9.204;2022-09-27T01:47:13;96701.63;;;10.54;100.00
13765;BME280;6953;48.810;9.204;2022-09-27T01:49:46;96934.44;;;11.94;100.00
13765;BME280;6953;48.810;9.204;2022-09-27T01:52:17;96959.03;;;12.13;100.00
13765;BME280;6953;48.810;9.204;2022-09-27T01:54:47;96958.06;;;12.14;100.00
13765;BME280;6953;48.810;9.204;2022-09-27T01:57:20;96957.22;;;12.14;100.00
13765;BME280;6953;48.810;9.204;2022-09-27T01:59:53;96887.06;;;11.75;100.00
13765;BME280;6953;48.810;9.204;2022-09-27T02:02:22;96955.03;;;12.19;100.00
13765;BME280;6953;48.810;9.204;2022-09-27T02:04:50;96672.34;;;10.49;100.00
13765;BME280;6953;48.810;9.204;2022-09-27T02:07:23;96961.19;;;12.29;100.00
13765;BME280;6953;48.810;9.204;2022-09-27T02:10:08;96949.50;;;12.22;100.00
13765;BME280;6953;48.810;9.204;2022-09-27T02:12:40;96952.16;;;12.22;100.00
13765;BME280;6953;48.810;9.204;2022-09-27T02:15:11;96954.06;;;12.20;100.00
13765;BME280;6953;48.810;9.204;2022-09-27T02:18:06;96944.06;;;12.14;100.00
13765;BME280;6953;48.810;9.204;2022-09-27T02:20:40;96902.78;;;11.86;100.00
13765;BME280;6953;48.810;9.204;2022-09-27T02:25:53;97022.06;;;12.34;100.00
13765;BME280;6953;48.810;9.204;2022-09-27T02:30:55;97001.72;;;12.36;100.00
13765;BME280;6953;48.810;9.204;2022-09-27T02:33:23;96971.91;;;12.16;100.00
13765;BME280;6953;48.810;9.204;2022-09-27T02:35:50;97003.19;;;12.19;100.00
13765;BME280;6953;48.810;9.204;2022-09-27T02:38:15;96990.44;;;12.15;100.00
13765;BME280;6953;48.810;9.204;2022-09-27T02:40:45;96980.03;;;12.04;100.00
13765;BME280;6953;48.810;9.204;2022-09-27T02:43:12;96939.31;;;11.68;100.00
13765;BME280;6953;48.810;9.204;2022-09-27T02:48:51;97000.75;;;11.97;100.00
13765;BME280;6953;48.810;9.204;2022-09-27T02:54:15;96982.91;;;11.71;100.00
13765;BME280;6953;48.810;9.204;2022-09-27T03:05:20;96934.41;;;11.03;100.00
13765;BME280;6953;48.810;9.204;2022-09-27T03:07:47;97028.47;;;11.49;100.00
13765;BME280;6953;48.810;9.204;2022-09-27T03:10:20;96967.56;;;11.04;100.00
13765;BME280;6953;48.810;9.204;2022-09-27T03:12:45;96781.81;;;9.83;100.00
13765;BME280;6953;48.810;9.204;2022-09-27T03:15:11;97063.28;;;11.31;100.00
13765;BME280;6953;48.810;9.204;2022-09-27T03:17:37;96956.09;;;10.84;100.00
13765;BME280;6953;48.810;9.204;2022-09-27T03:20:03;97021.06;;;11.23;100.00
13765;BME280;6953;48.810;9.204;2022-09-27T03:22:29;97025.75;;;11.20;100.00
13765;BME280;6953;48.810;9.204;2022-09-27T03:24:54;97032.91;;;11.18;100.00
13765;BME280;6953;48.810;9.204;2022-09-27T03:27:19;97050.75;;;11.24;100.00
13765;BME280;6953;48.810;9.204;2022-09-27T03:29:45;97048.28;;;11.22;100.00
13765;BME280;6953;48.810;9.204;2022-09-27T03:32:10;97049.53;;;11.07;100.00
13765;BME280;6953;48.810;9.204;2022-09-27T03:34:35;97056.97;;;11.23;100.00
13765;BME280;6953;48.810;9.204;2022-09-27T03:37:01;96946.28;;;10.55;100.00
13765;BME280;6953;48.810;9.204;2022-09-27T03:39:26;97058.19;;;11.19;100.00
13765;BME280;6953;48.810;9.204;2022-09-27T03:41:51;97054.72;;;11.18;100.00
13765;BME280;6953;48.810;9.204;2022-09-27T03:44:17;97071.22;;;11.09;100.00
13765;BME280;6953;48.810;9.204;2022-09-27T03:46:42;97057.84;;;11.12;100.00
13765;BME280;6953;48.810;9.204;2022-09-27T03:49:07;96795.78;;;9.51;100.00
13765;BME280;6953;48.810;9.204;2022-09-27T03:51:33;97065.25;;;11.07;100.00
13765;BME280;6953;48.810;9.204;2022-09-27T03:53:58;97057.41;;;11.07;100.00
13765;BME280;6953;48.810;9.204;2022-09-27T03:56:23;96806.84;;;9.65;100.00
13765;BME280;6953;48.810;9.204;2022-09-27T03:58:49;97073.81;;;11.20;100.00
13765;BME280;6953;48.810;9.204;2022-09-27T04:01:14;97046.13;;;11.16;100.00
13765;BME280;6953;48.810;9.204;2022-09-27T04:03:40;97058.28;;;11.28;100.00
13765;BME280;6953;48.810;9.204;2022-09-27T04:06:06;96872.38;;;10.19;100.00
13765;BME280;6953;48.810;9.204;2022-09-27T04:08:31;97044.19;;;11.29;100.00
13765;BME280;6953;48.810;9.204;2022-09-27T04:10:56;97065.13;;;11.40;100.00
13765;BME280;6953;48.810;9.204;2022-09-27T04:13:22;96808.94;;;9.93;100.00
13765;BME280;6953;48.810;9.204;2022-09-27T04:15:48;96813.59;;;10.01;100.00
13765;BME280;6953;48.810;9.204;2022-09-27T04:18:13;97067.13;;;11.47;100.00
13765;BME280;6953;48.810;9.204;2022-09-27T04:20:39;97042.94;;;11.44;100.00
13765;BME280;6953;48.810;9.204;2022-09-27T04:23:07;97106.28;;;11.61;100.00
13765;BME280;6953;48.810;9.204;2022-09-27T04:25:34;97064.97;;;11.52;100.00
13765;BME280;6953;48.810;9.204;2022-09-27T04:27:59;97056.97;;;11.23;100.00
13765;BME280;6953;48.810;9.204;2022-09-27T04:30:27;97068.19;;;11.56;100.00
13765;BME280;6953;48.810;9.204;2022-09-27T04:32:53;97092.06;;;11.53;100.00
13765;BME280;6953;48.810;9.204;2022-09-27T04:35:19;96828.56;;;10.10;100.00
13765;BME280;6953;48.810;9.204;2022-09-27T04:38:03;97080.59;;;11.65;100.00
13765;BME280;6953;48.810;9.204;2022-09-27T04:40:28;97107.19;;;11.71;100.00
13765;BME280;6953;48.810;9.204;2022-09-27T04:42:54;97094.28;;;11.68;100.00
13765;BME280;6953;48.810;9.204;2022-09-27T04:45:20;97050.66;;;11.45;100.00
13765;BME280;6953;48.810;9.204;2022-09-27T04:47:47;97070.47;;;11.81;100.00
13765;BME280;6953;48.810;9.204;2022-09-27T04:50:14;97085.09;;;11.94;100.00
13765;BME280;6953;48.810;9.204;2022-09-27T04:52:41;97100.22;;;12.02;100.00
13765;BME280;6953;48.810;9.204;2022-09-27T04:55:08;97089.06;;;11.89;100.00
13765;BME280;6953;48.810;9.204;2022-09-27T04:57:34;97093.28;;;12.21;100.00
13765;BME280;6953;48.810;9.204;2022-09-27T04:59:59;97041.22;;;11.95;100.00
13765;BME280;6953;48.810;9.204;2022-09-27T05:02:28;97100.38;;;12.30;100.00
13765;BME280;6953;48.810;9.204;2022-09-27T05:04:54;97101.44;;;12.18;100.00
13765;BME280;6953;48.810;9.204;2022-09-27T05:07:23;97109.13;;;12.10;100.00
13765;BME280;6953;48.810;9.204;2022-09-27T05:09:48;97116.38;;;11.97;100.00
13765;BME280;6953;48.810;9.204;2022-09-27T05:12:14;97087.75;;;11.83;100.00
13765;BME280;6953;48.810;9.204;2022-09-27T05:14:39;97117.78;;;12.01;100.00
13765;BME280;6953;48.810;9.204;2022-09-27T05:17:05;97126.50;;;12.02;100.00
13765;BME280;6953;48.810;9.204;2022-09-27T05:19:32;97064.13;;;11.63;100.00
13765;BME280;6953;48.810;9.204;2022-09-27T05:21:57;97063.44;;;11.50;100.00
13765;BME280;6953;48.810;9.204;2022-09-27T05:24:23;97137.50;;;11.96;100.00
13765;BME280;6953;48.810;9.204;2022-09-27T05:26:48;97064.75;;;11.55;100.00
13765;BME280;6953;48.810;9.204;2022-09-27T05:29:13;97177.97;;;12.04;100.00
13765;BME280;6953;48.810;9.204;2022-09-27T05:31:39;97154.06;;;12.07;100.00
13765;BME280;6953;48.810;9.204;2022-09-27T05:34:04;96929.78;;;10.64;100.00
13765;BME280;6953;48.810;9.204;2022-09-27T05:36:33;97154.69;;;12.00;100.00
13765;BME280;6953;48.810;9.204;2022-09-27T05:38:58;97158.53;;;11.96;100.00
13765;BME280;6953;48.810;9.204;2022-09-27T05:41:23;96989.94;;;10.87;100.00
13765;BME280;6953;48.810;9.204;2022-09-27T05:43:50;97176.22;;;11.94;100.00
13765;BME280;6953;48.810;9.204;2022-09-27T05:46:16;97187.63;;;11.83;100.00
13765;BME280;6953;48.810;9.204;2022-09-27T05:48:42;97171.59;;;11.86;100.00
13765;BME280;6953;48.810;9.204;2022-09-27T05:51:07;97099.53;;;11.37;100.00
13765;BME280;6953;48.810;9.204;2022-09-27T05:53:32;97177.09;;;11.83;100.00
13765;BME280;6953;48.810;9.204;2022-09-27T05:56:04;97182.34;;;11.83;100.00
13765;BME280;6953;48.810;9.204;2022-09-27T05:58:30;97135.53;;;11.46;100.00
13765;BME280;6953;48.810;9.204;2022-09-27T06:00:56;97185.38;;;11.79;100.00
13765;BME280;6953;48.810;9.204;2022-09-27T06:03:21;97188.72;;;11.81;100.00
13765;BME280;6953;48.810;9.204;2022-09-27T06:05:46;97047.28;;;10.92;100.00
13765;BME280;6953;48.810;9.204;2022-09-27T06:08:12;97200.19;;;11.80;100.00
13765;BME280;6953;48.810;9.204;2022-09-27T06:10:39;97201.28;;;11.77;100.00
13765;BME280;6953;48.810;9.204;2022-09-27T06:13:15;97207.09;;;11.81;100.00
13765;BME280;6953;48.810;9.204;2022-09-27T06:15:43;97246.13;;;11.85;100.00
13765;BME280;6953;48.810;9.204;2022-09-27T06:18:10;97219.75;;;11.87;100.00
13765;BME280;6953;48.810;9.204;2022-09-27T06:20:37;97210.06;;;11.87;100.00
13765;BME280;6953;48.810;9.204;2022-09-27T06:25:34;96974.06;;;10.46;100.00
13765;BME280;6953;48.810;9.204;2022-09-27T06:27:59;97227.47;;;11.99;100.00
13765;BME280;6953;48.810;9.204;2022-09-27T06:30:25;97220.31;;;12.01;100.00
13765;BME280;6953;48.810;9.204;2022-09-27T06:32:58;97221.34;;;12.10;100.00
13765;BME280;6953;48.810;9.204;2022-09-27T06:35:25;97226.34;;;12.13;100.00
13765;BME280;6953;48.810;9.204;2022-09-27T06:37:51;96981.38;;;10.85;100.00
13765;BME280;6953;48.810;9.204;2022-09-27T06:40:17;96978.13;;;10.93;100.00
13765;BME280;6953;48.810;9.204;2022-09-27T06:42:42;97226.88;;;12.68;100.00
13765;BME280;6953;48.810;9.204;2022-09-27T06:45:09;97149.59;;;12.19;100.00
13765;BME280;6953;48.810;9.204;2022-09-27T06:47:35;96936.16;;;10.82;100.00
13765;BME280;6953;48.810;9.204;2022-09-27T06:50:01;96999.06;;;11.04;100.00
13765;BME280;6953;48.810;9.204;2022-09-27T06:52:30;97255.75;;;12.38;100.00
13765;BME280;6953;48.810;9.204;2022-09-27T06:54:55;96968.94;;;10.56;100.00
13765;BME280;6953;48.810;9.204;2022-09-27T06:57:21;97251.94;;;12.11;100.00
13765;BME280;6953;48.810;9.204;2022-09-27T07:00:05;97241.47;;;11.89;100.00
13765;BME280;6953;48.810;9.204;2022-09-27T07:02:49;97249.13;;;11.92;100.00
13765;BME280;6953;48.810;9.204;2022-09-27T07:05:15;97258.78;;;11.91;100.00
13765;BME280;6953;48.810;9.204;2022-09-27T07:07:40;97280.47;;;12.04;100.00
13765;BME280;6953;48.810;9.204;2022-09-27T07:10:08;97264.13;;;12.12;100.00
13765;BME280;6953;48.810;9.204;2022-09-27T07:12:37;97262.88;;;12.16;100.00
13765;BME280;6953;48.810;9.204;2022-09-27T07:15:03;97283.66;;;12.19;100.00
13765;BME280;6953;48.810;9.204;2022-09-27T07:17:29;97086.94;;;11.20;100.00
13765;BME280;6953;48.810;9.204;2022-09-27T07:19:54;97174.69;;;11.60;100.00
13765;BME280;6953;48.810;9.204;2022-09-27T07:22:20;97264.69;;;12.15;100.00
13765;BME280;6953;48.810;9.204;2022-09-27T07:24:46;97065.69;;;11.12;100.00
13765;BME280;6953;48.810;9.204;2022-09-27T07:27:11;97042.47;;;11.08;99.91
13765;BME280;6953;48.810;9.204;2022-09-27T07:29:37;97288.41;;;12.56;99.94
13765;BME280;6953;48.810;9.204;2022-09-27T07:32:03;97277.31;;;12.52;99.64
13765;BME280;6953;48.810;9.204;2022-09-27T07:34:29;97069.50;;;11.19;100.00
13765;BME280;6953;48.810;9.204;2022-09-27T07:36:58;96948.34;;;10.40;99.96
13765;BME280;6953;48.810;9.204;2022-09-27T07:39:24;97290.91;;;12.37;100.00
13765;BME280;6953;48.810;9.204;2022-09-27T07:41:50;97299.50;;;12.39;100.00
13765;BME280;6953;48.810;9.204;2022-09-27T07:44:16;97280.22;;;12.18;100.00
13765;BME280;6953;48.810;9.204;2022-09-27T07:46:42;97004.22;;;10.52;100.00
13765;BME280;6953;48.810;9.204;2022-09-27T07:49:07;97298.19;;;12.34;100.00
13765;BME280;6953;48.810;9.204;2022-09-27T07:51:33;97260.22;;;12.27;100.00
13765;BME280;6953;48.810;9.204;2022-09-27T07:53:58;97317.91;;;12.91;100.00
13765;BME280;6953;48.810;9.204;2022-09-27T07:56:26;97314.94;;;13.05;97.36
13765;BME280;6953;48.810;9.204;2022-09-27T07:58:51;97297.28;;;13.16;98.75
13765;BME280;6953;48.810;9.204;2022-09-27T08:01:16;97119.56;;;12.42;95.35
13765;BME280;6953;48.810;9.204;2022-09-27T08:03:42;97258.50;;;13.18;94.71
13765;BME280;6953;48.810;9.204;2022-09-27T08:06:08;97349.38;;;14.42;92.71
13765;BME280;6953;48.810;9.204;2022-09-27T08:08:33;97250.66;;;15.55;82.83
13765;BME280;6953;48.810;9.204;2022-09-27T08:10:59;97315.94;;;15.81;81.21
13765;BME280;6953;48.810;9.204;2022-09-27T08:13:24;97252.38;;;14.91;83.32
13765;BME280;6953;48.810;9.204;2022-09-27T08:15:50;97227.41;;;14.57;83.39
13765;BME280;6953;48.810;9.204;2022-09-27T08:18:17;97129.69;;;13.92;83.13
13765;BME280;6953;48.810;9.204;2022-09-27T08:20:42;97344.81;;;15.65;81.20
13765;BME280;6953;48.810;9.204;2022-09-27T08:23:07;97190.56;;;14.84;77.98
13765;BME280;6953;48.810;9.204;2022-09-27T08:25:33;97335.38;;;15.99;74.72
13765;BME280;6953;48.810;9.204;2022-09-27T08:28:00;97345.56;;;16.11;73.70
13765;BME280;6953;48.810;9.204;2022-09-27T08:30:28;97344.69;;;17.60;68.42
13765;BME280;6953;48.810;9.204;2022-09-27T08:32:59;97329.22;;;18.63;63.84
13765;BME280;6953;48.810;9.204;2022-09-27T08:35:25;97326.75;;;18.85;62.52
13765;BME280;6953;48.810;9.204;2022-09-27T08:37:56;97346.72;;;20.23;58.32
13765;BME280;6953;48.810;9.204;2022-09-27T08:40:30;97347.25;;;21.69;51.71
13765;BME280;6953;48.810;9.204;2022-09-27T08:43:03;97154.69;;;22.49;46.91
13765;BME280;6953;48.810;9.204;2022-09-27T08:45:40;97380.78;;;24.53;41.64
13765;BME280;6953;48.810;9.204;2022-09-27T08:48:08;97357.50;;;22.52;47.44
13765;BME280;6953;48.810;9.204;2022-09-27T08:50:37;97352.50;;;20.65;52.61
13765;BME280;6953;48.810;9.204;2022-09-27T08:55:41;97329.72;;;18.59;59.50
13765;BME280;6953;48.810;9.204;2022-09-27T09:00:59;97195.13;;;17.19;62.19
13765;BME280;6953;48.810;9.204;2022-09-27T09:03:30;97370.00;;;17.79;63.12
13765;BME280;6953;48.810;9.204;2022-09-27T09:06:16;97368.75;;;17.66;63.73
13765;BME280;6953;48.810;9.204;2022-09-27T09:08:55;97363.56;;;17.31;64.97
13765;BME280;6953;48.810;9.204;2022-09-27T09:11:42;97303.47;;;16.45;66.32
13765;BME280;6953;48.810;9.204;2022-09-27T09:14:40;97375.00;;;16.35;68.39
13765;BME280;6953;48.810;9.204;2022-09-27T09:23:07;97287.34;;;13.98;79.83
13765;BME280;6953;48.810;9.204;2022-09-27T09:26:11;97377.09;;;14.17;83.14
13765;BME280;6953;48.810;9.204;2022-09-27T09:28:49;97389.31;;;14.18;82.67
13765;BME280;6953;48.810;9.204;2022-09-27T09:34:05;97376.69;;;16.36;73.23
13765;BME280;6953;48.810;9.204;2022-09-27T09:36:42;97381.00;;;16.37;73.50
13765;BME280;6953;48.810;9.204;2022-09-27T09:39:17;97374.91;;;16.71;71.17
13765;BME280;6953;48.810;9.204;2022-09-27T09:46:50;97360.88;;;24.88;42.01
13765;BME280;6953;48.810;9.204;2022-09-27T09:49:34;97183.16;;;24.07;38.94
13765;BME280;6953;48.810;9.204;2022-09-27T09:52:09;97385.59;;;24.77;39.93
13765;BME280;6953;48.810;9.204;2022-09-27T09:54:46;97353.38;;;23.96;39.89
13765;BME280;6953;48.810;9.204;2022-09-27T09:57:16;97208.03;;;23.26;38.97
13765;BME280;6953;48.810;9.204;2022-09-27T09:59:52;97242.69;;;23.62;38.04
13765;BME280;6953;48.810;9.204;2022-09-27T10:02:33;97352.84;;;23.31;39.26
13765;BME280;6953;48.810;9.204;2022-09-27T10:05:00;97327.91;;;21.96;42.59
13765;BME280;6953;48.810;9.204;2022-09-27T10:07:26;97325.78;;;21.03;45.22
13765;BME280;6953;48.810;9.204;2022-09-27T10:09:56;97323.75;;;20.83;47.39
13765;BME280;6953;48.810;9.204;2022-09-27T10:12:24;97273.22;;;22.56;41.43
13765;BME280;6953;48.810;9.204;2022-09-27T10:14:51;97150.50;;;21.70;41.32
13765;BME280;6953;48.810;9.204;2022-09-27T10:17:20;97142.03;;;21.66;41.07
13765;BME280;6953;48.810;9.204;2022-09-27T10:19:48;97147.31;;;21.60;40.45
13765;BME280;6953;48.810;9.204;2022-09-27T10:22:30;97339.88;;;21.71;42.58
13765;BME280;6953;48.810;9.204;2022-09-27T10:25:00;97336.38;;;20.89;44.85
13765;BME280;6953;48.810;9.204;2022-09-27T10:27:41;97263.03;;;19.72;45.37
13765;BME280;6953;48.810;9.204;2022-09-27T10:32:51;97328.94;;;19.06;50.82
13765;BME280;6953;48.810;9.204;2022-09-27T10:38:18;97287.97;;;17.53;56.18
13765;BME280;6953;48.810;9.204;2022-09-27T10:40:46;97272.94;;;16.93;58.63
13765;BME280;6953;48.810;9.204;2022-09-27T10:43:34;97341.31;;;16.89;59.35
13765;BME280;6953;48.810;9.204;2022-09-27T10:46:09;97125.63;;;15.18;62.27
13765;BME280;6953;48.810;9.204;2022-09-27T10:48:37;97304.31;;;15.91;65.58
13765;BME280;6953;48.810;9.204;2022-09-27T10:51:18;97328.41;;;15.98;67.18
13765;BME280;6953;48.810;9.204;2022-09-27T10:53:46;97347.47;;;16.28;67.68
13765;BME280;6953;48.810;9.204;2022-09-27T10:56:33;97305.50;;;17.03;65.80
13765;BME280;6953;48.810;9.204;2022-09-27T10:58:59;97317.34;;;17.34;60.38
13765;BME280;6953;48.810;9.204;2022-09-27T11:01:26;97297.06;;;17.50;60.34
13765;BME280;6953;48.810;9.204;2022-09-27T11:04:02;97306.56;;;17.94;58.62
13765;BME280;6953;48.810;9.204;2022-09-27T11:06:30;97310.25;;;18.01;57.76
13765;BME280;6953;48.810;9.204;2022-09-27T11:11:47;97266.75;;;16.84;61.45
13765;BME280;6953;48.810;9.204;2022-09-27T11:14:18;97293.34;;;17.35;61.41
13765;BME280;6953;48.810;9.204;2022-09-27T11:16:49;97082.09;;;16.69;59.71
13765;BME280;6953;48.810;9.204;2022-09-27T11:22:10;97312.94;;;18.09;56.76
13765;BME280;6953;48.810;9.204;2022-09-27T11:24:53;97310.75;;;18.04;57.01
13765;BME280;6953;48.810;9.204;2022-09-27T11:30:15;97016.31;;;16.31;56.96
13765;BME280;6953;48.810;9.204;2022-09-27T11:32:54;97281.50;;;17.88;56.22
13765;BME280;6953;48.810;9.204;2022-09-27T11:46:29;97266.72;;;17.78;55.72
13765;BME280;6953;48.810;9.204;2022-09-27T11:54:38;97294.47;;;17.99;55.76
13765;BME280;6953;48.810;9.204;2022-09-27T11:57:21;97310.50;;;17.49;56.12
13765;BME280;6953;48.810;9.204;2022-09-27T12:02:54;97130.66;;;15.65;58.95
13765;BME280;6953;48.810;9.204;2022-09-27T12:05:26;97360.75;;;16.19;62.92
13765;BME280;6953;48.810;9.204;2022-09-27T12:11:04;97247.91;;;13.09;75.79
13765;BME280;6953;48.810;9.204;2022-09-27T12:13:39;97370.41;;;13.24;78.62
13765;BME280;6953;48.810;9.204;2022-09-27T12:16:06;97115.00;;;11.51;82.32
13765;BME280;6953;48.810;9.204;2022-09-27T12:18:35;97358.97;;;12.62;84.05
13765;BME280;6953;48.810;9.204;2022-09-27T12:21:06;97347.81;;;12.38;87.11
13765;BME280;6953;48.810;9.204;2022-09-27T12:26:09;97311.13;;;11.50;92.68
13765;BME280;6953;48.810;9.204;2022-09-27T12:28:55;97384.09;;;11.80;93.26
13765;BME280;6953;48.810;9.204;2022-09-27T12:31:35;97347.56;;;11.88;93.53
13765;BME280;6953;48.810;9.204;2022-09-27T12:34:53;97267.47;;;11.60;94.27
13765;BME280;6953;48.810;9.204;2022-09-27T12:37:00;97079.34;;;11.06;92.91
13765;BME280;6953;48.810;9.204;2022-09-27T12:39:42;97335.19;;;12.84;91.83
13765;BME280;6953;48.810;9.204;2022-09-27T12:42:17;97354.28;;;12.65;92.84
13765;BME280;6953;48.810;9.204;2022-09-27T12:44:44;97312.56;;;12.61;93.46
13765;BME280;6953;48.810;9.204;2022-09-27T12:47:44;97323.00;;;12.51;93.86
13765;BME280;6953;48.810;9.204;2022-09-27T12:52:55;97244.44;;;12.27;94.23
13765;BME280;6953;48.810;9.204;2022-09-27T12:55:51;97291.66;;;13.00;92.97
13765;BME280;6953;48.810;9.204;2022-09-27T13:07:13;96997.66;;;13.20;86.32
13765;BME280;6953;48.810;9.204;2022-09-27T13:12:25;97302.59;;;15.46;82.44
13765;BME280;6953;48.810;9.204;2022-09-27T13:22:51;97296.22;;;13.97;88.16
13765;BME280;6953;48.810;9.204;2022-09-27T13:31:11;97313.50;;;12.91;96.57
13765;BME280;6953;48.810;9.204;2022-09-27T13:41:27;97298.19;;;12.34;100.00
13765;BME280;6953;48.810;9.204;2022-09-27T13:44:13;97143.34;;;11.26;100.00
13765;BME280;6953;48.810;9.204;2022-09-27T13:46:52;97291.69;;;12.17;100.00
13765;BME280;6953;48.810;9.204;2022-09-27T13:51:54;97308.91;;;12.10;100.00
13765;BME280;6953;48.810;9.204;2022-09-27T13:56:59;97280.28;;;11.96;100.00
13765;BME280;6953;48.810;9.204;2022-09-27T13:59:38;97282.97;;;11.74;100.00
13765;BME280;6953;48.810;9.204;2022-09-27T14:04:39;97281.03;;;11.76;100.00
13765;BME280;6953;48.810;9.204;2022-09-27T14:07:09;97286.16;;;11.78;100.00
13765;BME280;6953;48.810;9.204;2022-09-27T14:09:39;97306.47;;;11.76;100.00
13765;BME280;6953;48.810;9.204;2022-09-27T14:12:11;97307.56;;;11.73;100.00
13765;BME280;6953;48.810;9.204;2022-09-27T14:14:40;97346.47;;;11.68;100.00
13765;BME280;6953;48.810;9.204;2022-09-27T14:17:08;97241.91;;;11.30;100.00
13765;BME280;6953;48.810;9.204;2022-09-27T14:19:40;97288.94;;;11.54;100.00
13765;BME280;6953;48.810;9.204;2022-09-27T14:22:18;97302.53;;;11.48;100.00
13765;BME280;6953;48.810;9.204;2022-09-27T14:24:51;97017.88;;;9.90;100.00
13765;BME280;6953;48.810;9.204;2022-09-27T14:27:25;97332.28;;;11.49;100.00
13765;BME280;6953;48.810;9.204;2022-09-27T14:29:56;97268.63;;;11.24;100.00
13765;BME280;6953;48.810;9.204;2022-09-27T14:32:27;97300.84;;;11.47;100.00
13765;BME280;6953;48.810;9.204;2022-09-27T14:37:29;96968.75;;;10.04;100.00
13765;BME280;6953;48.810;9.204;2022-09-27T14:40:01;97290.44;;;12.32;100.00
13765;BME280;6953;48.810;9.204;2022-09-27T14:42:32;97299.00;;;12.65;100.00
13765;BME280;6953;48.810;9.204;2022-09-27T14:45:05;97281.06;;;13.11;100.00
13765;BME280;6953;48.810;9.204;2022-09-27T14:47:31;97313.94;;;13.17;100.00
13765;BME280;6953;48.810;9.204;2022-09-27T14:50:11;97284.59;;;13.31;100.00
13765;BME280;6953;48.810;9.204;2022-09-27T14:52:38;97071.81;;;12.16;100.00
13765;BME280;6953;48.810;9.204;2022-09-27T14:55:16;97293.66;;;13.38;100.00
13765;BME280;6953;48.810;9.204;2022-09-27T14:57:48;97325.56;;;13.44;100.00
13765;BME280;6953;48.810;9.204;2022-09-27T15:00:27;97316.72;;;13.45;100.00
13765;BME280;6953;48.810;9.204;2022-09-27T15:02:59;97308.41;;;13.20;100.00
13765;BME280;6953;48.810;9.204;2022-09-27T15:05:29;97278.47;;;13.21;100.00
13765;BME280;6953;48.810;9.204;2022-09-27T15:07:56;97020.28;;;11.63;100.00
13765;BME280;6953;48.810;9.204;2022-09-27T15:10:28;97072.63;;;11.55;100.00
13765;BME280;6953;48.810;9.204;2022-09-27T15:12:56;97298.16;;;12.65;100.00
13765;BME280;6953;48.810;9.204;2022-09-27T15:15:33;97281.91;;;12.40;100.00
13765;BME280;6953;48.810;9.204;2022-09-27T15:18:00;97052.25;;;11.06;100.00
13765;BME280;6953;48.810;9.204;2022-09-27T15:20:30;97070.56;;;11.28;100.00
13765;BME280;6953;48.810;9.204;2022-09-27T15:23:00;97296.50;;;12.84;100.00
13765;BME280;6953;48.810;9.204;2022-09-27T15:28:04;97329.16;;;13.13;100.00
13765;BME280;6953;48.810;9.204;2022-09-27T15:30:38;97318.28;;;13.27;100.00
13765;BME280;6953;48.810;9.204;2022-09-27T15:33:05;97134.25;;;12.24;100.00
13765;BME280;6953;48.810;9.204;2022-09-27T15:35:34;97075.00;;;12.20;100.00
13765;BME280;6953;48.810;9.204;2022-09-27T15:38:29;97281.53;;;13.55;100.00
13765;BME280;6953;48.810;9.204;2022-09-27T15:41:07;97062.88;;;12.28;100.00
13765;BME280;6953;48.810;9.204;2022-09-27T15:43:34;97301.59;;;13.86;98.65
13765;BME280;6953;48.810;9.204;2022-09-27T15:46:03;97065.41;;;12.69;96.16
13765;BME280;6953;48.810;9.204;2022-09-27T15:48:31;97302.56;;;14.25;94.31
13765;BME280;6953;48.810;9.204;2022-09-27T15:50:57;97086.34;;;13.10;92.78
13765;BME280;6953;48.810;9.204;2022-09-27T15:56:05;97294.81;;;14.52;92.74